Terminal Aerodrome Forecast
Issued by NWS

Home | Current Version | Previous Version | Graphics & Text | Print | Product List | Glossary On
Versions: 1 2 3 4 5 6 7 8 9 10 11 12 13
026
FTUS43 KICT 210520
TAFSLN
TAF
KSLN 210520Z 2106/2206 25007KT P6SM BKN250
     FM210900 29007KT P6SM BKN150
     FM211200 35012KT P6SM BKN100
     FM211600 35019G27KT P6SM SCT120
     FM220000 36009KT P6SM SKC=

USA.gov is the U.S. government's official web portal to all federal, state and local government web resources and services.